sensor_id;sensor_type;location;lat;lon;timestamp;temperature;humidity
64843;DHT22;51310;52.198;5.422;2023-03-19T00:00:07;10.70;99.90
64843;DHT22;51310;52.198;5.422;2023-03-19T00:02:34;10.70;99.90
64843;DHT22;51310;52.198;5.422;2023-03-19T00:05:01;10.70;99.90
64843;DHT22;51310;52.198;5.422;2023-03-19T00:07:28;10.60;99.90
64843;DHT22;51310;52.198;5.422;2023-03-19T00:09:53;10.60;99.90
64843;DHT22;51310;52.198;5.422;2023-03-19T00:12:19;10.60;99.90
64843;DHT22;51310;52.198;5.422;2023-03-19T00:14:45;10.60;99.90
64843;DHT22;51310;52.198;5.422;2023-03-19T00:17:11;10.60;99.90
64843;DHT22;51310;52.198;5.422;2023-03-19T00:19:36;10.60;99.90
64843;DHT22;51310;52.198;5.422;2023-03-19T00:22:02;10.60;99.90
64843;DHT22;51310;52.198;5.422;2023-03-19T00:24:28;10.60;99.90
64843;DHT22;51310;52.198;5.422;2023-03-19T00:26:54;10.60;99.90
64843;DHT22;51310;52.198;5.422;2023-03-19T00:29:20;10.50;99.90
64843;DHT22;51310;52.198;5.422;2023-03-19T00:31:47;10.50;99.90
64843;DHT22;51310;52.198;5.422;2023-03-19T00:34:13;10.50;99.90
64843;DHT22;51310;52.198;5.422;2023-03-19T00:36:43;10.50;99.90
64843;DHT22;51310;52.198;5.422;2023-03-19T00:39:08;10.50;99.90
64843;DHT22;51310;52.198;5.422;2023-03-19T00:41:34;10.50;99.90
64843;DHT22;51310;52.198;5.422;2023-03-19T00:44:00;10.50;99.90
64843;DHT22;51310;52.198;5.422;2023-03-19T00:46:26;10.50;99.90
64843;DHT22;51310;52.198;5.422;2023-03-19T00:48:51;10.50;99.90
64843;DHT22;51310;52.198;5.422;2023-03-19T00:51:20;10.40;99.90
64843;DHT22;51310;52.198;5.422;2023-03-19T00:53:47;10.40;99.90
64843;DHT22;51310;52.198;5.422;2023-03-19T00:56:13;10.40;99.90
64843;DHT22;51310;52.198;5.422;2023-03-19T00:58:40;10.40;99.90
64843;DHT22;51310;52.198;5.422;2023-03-19T01:01:07;10.30;99.90
64843;DHT22;51310;52.198;5.422;2023-03-19T01:03:34;10.30;99.90
64843;DHT22;51310;52.198;5.422;2023-03-19T01:06:00;10.20;99.90
64843;DHT22;51310;52.198;5.422;2023-03-19T01:08:25;10.20;99.90
64843;DHT22;51310;52.198;5.422;2023-03-19T01:10:52;10.10;99.90
64843;DHT22;51310;52.198;5.422;2023-03-19T01:13:18;10.00;99.90
64843;DHT22;51310;52.198;5.422;2023-03-19T01:15:44;10.00;99.90
64843;DHT22;51310;52.198;5.422;2023-03-19T01:18:11;9.80;99.90
64843;DHT22;51310;52.198;5.422;2023-03-19T01:20:38;9.70;99.90
64843;DHT22;51310;52.198;5.422;2023-03-19T01:23:06;9.60;99.90
64843;DHT22;51310;52.198;5.422;2023-03-19T01:25:33;9.50;99.90
64843;DHT22;51310;52.198;5.422;2023-03-19T01:27:59;9.40;99.90
64843;DHT22;51310;52.198;5.422;2023-03-19T01:30:25;9.30;99.90
64843;DHT22;51310;52.198;5.422;2023-03-19T01:32:51;9.20;99.90
64843;DHT22;51310;52.198;5.422;2023-03-19T01:35:16;9.10;99.90
64843;DHT22;51310;52.198;5.422;2023-03-19T01:37:42;9.00;99.90
64843;DHT22;51310;52.198;5.422;2023-03-19T01:40:11;9.00;99.90
64843;DHT22;51310;52.198;5.422;2023-03-19T01:45:52;8.90;99.90
64843;DHT22;51310;52.198;5.422;2023-03-19T01:48:46;8.80;99.90
64843;DHT22;51310;52.198;5.422;2023-03-19T01:51:17;8.90;99.90
64843;DHT22;51310;52.198;5.422;2023-03-19T01:53:51;9.00;99.90
64843;DHT22;51310;52.198;5.422;2023-03-19T01:56:26;9.00;99.90
64843;DHT22;51310;52.198;5.422;2023-03-19T01:59:07;9.10;99.90
64843;DHT22;51310;52.198;5.422;2023-03-19T02:01:45;9.20;99.90
64843;DHT22;51310;52.198;5.422;2023-03-19T02:04:18;9.20;99.90
64843;DHT22;51310;52.198;5.422;2023-03-19T02:06:44;9.40;99.90
64843;DHT22;51310;52.198;5.422;2023-03-19T02:09:10;9.40;99.90
64843;DHT22;51310;52.198;5.422;2023-03-19T02:11:36;9.50;99.90
64843;DHT22;51310;52.198;5.422;2023-03-19T02:14:02;9.60;99.90
64843;DHT22;51310;52.198;5.422;2023-03-19T02:16:28;9.60;99.90
64843;DHT22;51310;52.198;5.422;2023-03-19T02:18:55;9.60;99.90
64843;DHT22;51310;52.198;5.422;2023-03-19T02:21:21;9.60;99.90
64843;DHT22;51310;52.198;5.422;2023-03-19T02:24:10;9.60;99.90
64843;DHT22;51310;52.198;5.422;2023-03-19T02:26:39;9.50;99.90
64843;DHT22;51310;52.198;5.422;2023-03-19T02:29:06;9.40;99.90
64843;DHT22;51310;52.198;5.422;2023-03-19T02:31:32;9.40;99.90
64843;DHT22;51310;52.198;5.422;2023-03-19T02:34:00;9.20;99.90
64843;DHT22;51310;52.198;5.422;2023-03-19T02:36:59;9.20;99.90
64843;DHT22;51310;52.198;5.422;2023-03-19T02:39:58;9.00;99.90
64843;DHT22;51310;52.198;5.422;2023-03-19T02:42:29;9.00;99.90
64843;DHT22;51310;52.198;5.422;2023-03-19T02:44:56;9.00;99.90
64843;DHT22;51310;52.198;5.422;2023-03-19T02:47:23;9.00;99.90
64843;DHT22;51310;52.198;5.422;2023-03-19T02:49:50;9.20;99.90
64843;DHT22;51310;52.198;5.422;2023-03-19T02:52:16;9.20;99.90
64843;DHT22;51310;52.198;5.422;2023-03-19T02:54:43;9.30;99.90
64843;DHT22;51310;52.198;5.422;2023-03-19T02:57:09;9.40;99.90
64843;DHT22;51310;52.198;5.422;2023-03-19T02:59:35;9.40;99.90
64843;DHT22;51310;52.198;5.422;2023-03-19T03:02:01;9.40;99.90
64843;DHT22;51310;52.198;5.422;2023-03-19T03:04:27;9.40;99.90
64843;DHT22;51310;52.198;5.422;2023-03-19T03:06:53;9.50;99.90
64843;DHT22;51310;52.198;5.422;2023-03-19T03:09:19;9.50;99.90
64843;DHT22;51310;52.198;5.422;2023-03-19T03:11:45;9.50;99.90
64843;DHT22;51310;52.198;5.422;2023-03-19T03:14:11;9.50;99.90
64843;DHT22;51310;52.198;5.422;2023-03-19T03:16:37;9.40;99.90
64843;DHT22;51310;52.198;5.422;2023-03-19T03:19:03;9.30;99.90
64843;DHT22;51310;52.198;5.422;2023-03-19T03:21:30;9.20;99.90
64843;DHT22;51310;52.198;5.422;2023-03-19T03:23:56;9.10;99.90
64843;DHT22;51310;52.198;5.422;2023-03-19T03:26:22;9.10;99.90
64843;DHT22;51310;52.198;5.422;2023-03-19T03:28:47;9.00;99.90
64843;DHT22;51310;52.198;5.422;2023-03-19T03:31:13;9.10;99.90
64843;DHT22;51310;52.198;5.422;2023-03-19T03:33:39;9.00;99.90
64843;DHT22;51310;52.198;5.422;2023-03-19T03:36:05;9.10;99.90
64843;DHT22;51310;52.198;5.422;2023-03-19T03:38:31;9.20;99.90
64843;DHT22;51310;52.198;5.422;2023-03-19T03:40:57;9.20;99.90
64843;DHT22;51310;52.198;5.422;2023-03-19T03:43:23;9.20;99.90
64843;DHT22;51310;52.198;5.422;2023-03-19T03:45:50;9.20;99.90
64843;DHT22;51310;52.198;5.422;2023-03-19T03:48:16;9.20;99.90
64843;DHT22;51310;52.198;5.422;2023-03-19T03:50:42;9.30;99.90
64843;DHT22;51310;52.198;5.422;2023-03-19T03:53:09;9.40;99.90
64843;DHT22;51310;52.198;5.422;2023-03-19T03:55:37;9.40;99.90
64843;DHT22;51310;52.198;5.422;2023-03-19T03:58:03;9.40;99.90
64843;DHT22;51310;52.198;5.422;2023-03-19T04:00:29;9.40;99.90
64843;DHT22;51310;52.198;5.422;2023-03-19T04:02:55;9.40;99.90
64843;DHT22;51310;52.198;5.422;2023-03-19T04:05:21;9.40;99.90
64843;DHT22;51310;52.198;5.422;2023-03-19T04:07:47;9.40;99.90
64843;DHT22;51310;52.198;5.422;2023-03-19T04:10:13;9.20;99.90
64843;DHT22;51310;52.198;5.422;2023-03-19T04:12:40;9.10;99.90
64843;DHT22;51310;52.198;5.422;2023-03-19T04:15:07;9.00;99.90
64843;DHT22;51310;52.198;5.422;2023-03-19T04:17:35;8.80;99.90
64843;DHT22;51310;52.198;5.422;2023-03-19T04:20:02;8.60;99.90
64843;DHT22;51310;52.198;5.422;2023-03-19T04:22:29;8.50;99.90
64843;DHT22;51310;52.198;5.422;2023-03-19T04:24:56;8.40;99.90
64843;DHT22;51310;52.198;5.422;2023-03-19T04:27:22;8.30;99.90
64843;DHT22;51310;52.198;5.422;2023-03-19T04:29:48;8.20;99.90
64843;DHT22;51310;52.198;5.422;2023-03-19T04:32:13;8.30;99.90
64843;DHT22;51310;52.198;5.422;2023-03-19T04:34:39;8.20;99.90
64843;DHT22;51310;52.198;5.422;2023-03-19T04:37:06;8.20;99.90
64843;DHT22;51310;52.198;5.422;2023-03-19T04:39:34;8.20;99.90
64843;DHT22;51310;52.198;5.422;2023-03-19T04:42:01;8.10;99.90
64843;DHT22;51310;52.198;5.422;2023-03-19T04:44:28;8.00;99.90
64843;DHT22;51310;52.198;5.422;2023-03-19T04:46:55;7.90;99.90
64843;DHT22;51310;52.198;5.422;2023-03-19T04:49:21;7.80;99.90
64843;DHT22;51310;52.198;5.422;2023-03-19T04:51:46;7.80;99.90
64843;DHT22;51310;52.198;5.422;2023-03-19T04:54:12;7.70;99.90
64843;DHT22;51310;52.198;5.422;2023-03-19T04:56:38;7.60;99.90
64843;DHT22;51310;52.198;5.422;2023-03-19T04:59:03;7.60;99.90
64843;DHT22;51310;52.198;5.422;2023-03-19T05:01:29;7.50;99.90
64843;DHT22;51310;52.198;5.422;2023-03-19T05:03:55;7.50;99.90
64843;DHT22;51310;52.198;5.422;2023-03-19T05:06:21;7.50;99.90
64843;DHT22;51310;52.198;5.422;2023-03-19T05:08:47;7.40;99.90
64843;DHT22;51310;52.198;5.422;2023-03-19T05:11:13;7.40;99.90
64843;DHT22;51310;52.198;5.422;2023-03-19T05:13:39;7.40;99.90
64843;DHT22;51310;52.198;5.422;2023-03-19T05:16:04;7.30;99.90
64843;DHT22;51310;52.198;5.422;2023-03-19T05:18:30;7.30;99.90
64843;DHT22;51310;52.198;5.422;2023-03-19T05:20:57;7.20;99.90
64843;DHT22;51310;52.198;5.422;2023-03-19T05:23:23;7.20;99.90
64843;DHT22;51310;52.198;5.422;2023-03-19T05:25:49;7.20;99.90
64843;DHT22;51310;52.198;5.422;2023-03-19T05:28:15;7.20;99.90
64843;DHT22;51310;52.198;5.422;2023-03-19T05:30:41;7.20;99.90
64843;DHT22;51310;52.198;5.422;2023-03-19T05:33:08;7.10;99.90
64843;DHT22;51310;52.198;5.422;2023-03-19T05:35:34;7.10;99.90
64843;DHT22;51310;52.198;5.422;2023-03-19T05:38:01;7.10;99.90
64843;DHT22;51310;52.198;5.422;2023-03-19T05:40:27;7.00;99.90
64843;DHT22;51310;52.198;5.422;2023-03-19T05:42:53;7.00;99.90
64843;DHT22;51310;52.198;5.422;2023-03-19T05:45:18;7.00;99.90
64843;DHT22;51310;52.198;5.422;2023-03-19T05:47:48;7.00;99.90
64843;DHT22;51310;52.198;5.422;2023-03-19T05:50:16;7.00;99.90
64843;DHT22;51310;52.198;5.422;2023-03-19T05:52:42;7.00;99.90
64843;DHT22;51310;52.198;5.422;2023-03-19T05:55:08;7.00;99.90
64843;DHT22;51310;52.198;5.422;2023-03-19T05:57:35;7.00;99.90
64843;DHT22;51310;52.198;5.422;2023-03-19T06:00:01;7.00;99.90
64843;DHT22;51310;52.198;5.422;2023-03-19T06:02:26;7.00;99.90
64843;DHT22;51310;52.198;5.422;2023-03-19T06:04:52;6.90;99.90
64843;DHT22;51310;52.198;5.422;2023-03-19T06:07:18;7.00;99.90
64843;DHT22;51310;52.198;5.422;2023-03-19T06:09:43;7.00;99.90
64843;DHT22;51310;52.198;5.422;2023-03-19T06:12:09;7.20;99.90
64843;DHT22;51310;52.198;5.422;2023-03-19T06:14:35;7.30;99.90
64843;DHT22;51310;52.198;5.422;2023-03-19T06:17:01;7.50;99.90
64843;DHT22;51310;52.198;5.422;2023-03-19T06:19:26;7.50;99.90
64843;DHT22;51310;52.198;5.422;2023-03-19T06:21:52;7.60;99.90
64843;DHT22;51310;52.198;5.422;2023-03-19T06:24:18;7.80;99.90
64843;DHT22;51310;52.198;5.422;2023-03-19T06:26:44;7.80;99.90
64843;DHT22;51310;52.198;5.422;2023-03-19T06:29:09;7.80;99.90
64843;DHT22;51310;52.198;5.422;2023-03-19T06:31:35;7.90;99.90
64843;DHT22;51310;52.198;5.422;2023-03-19T06:34:03;8.00;99.90
64843;DHT22;51310;52.198;5.422;2023-03-19T06:36:29;8.00;99.90
64843;DHT22;51310;52.198;5.422;2023-03-19T06:38:55;8.00;99.90
64843;DHT22;51310;52.198;5.422;2023-03-19T06:41:21;8.00;99.90
64843;DHT22;51310;52.198;5.422;2023-03-19T06:43:46;8.10;99.90
64843;DHT22;51310;52.198;5.422;2023-03-19T06:46:12;8.10;99.90
64843;DHT22;51310;52.198;5.422;2023-03-19T06:48:38;8.20;99.90
64843;DHT22;51310;52.198;5.422;2023-03-19T06:51:05;8.20;99.90
64843;DHT22;51310;52.198;5.422;2023-03-19T06:53:31;8.30;99.90
64843;DHT22;51310;52.198;5.422;2023-03-19T06:55:57;8.30;99.90
64843;DHT22;51310;52.198;5.422;2023-03-19T06:58:22;8.30;99.90
64843;DHT22;51310;52.198;5.422;2023-03-19T07:00:48;8.30;99.90
64843;DHT22;51310;52.198;5.422;2023-03-19T07:03:14;8.30;99.90
64843;DHT22;51310;52.198;5.422;2023-03-19T07:05:40;8.30;99.90
64843;DHT22;51310;52.198;5.422;2023-03-19T07:08:05;8.30;99.90
64843;DHT22;51310;52.198;5.422;2023-03-19T07:10:37;8.20;99.90
64843;DHT22;51310;52.198;5.422;2023-03-19T07:13:04;8.30;99.90
64843;DHT22;51310;52.198;5.422;2023-03-19T07:15:30;8.30;99.90
64843;DHT22;51310;52.198;5.422;2023-03-19T07:17:56;8.30;99.90
64843;DHT22;51310;52.198;5.422;2023-03-19T07:20:21;8.30;99.90
64843;DHT22;51310;52.198;5.422;2023-03-19T07:22:49;8.30;99.90
64843;DHT22;51310;52.198;5.422;2023-03-19T07:25:16;8.40;99.90
64843;DHT22;51310;52.198;5.422;2023-03-19T07:27:42;8.50;99.90
64843;DHT22;51310;52.198;5.422;2023-03-19T07:30:09;8.50;99.90
64843;DHT22;51310;52.198;5.422;2023-03-19T07:32:36;8.50;99.90
64843;DHT22;51310;52.198;5.422;2023-03-19T07:35:06;8.50;99.90
64843;DHT22;51310;52.198;5.422;2023-03-19T07:37:33;8.50;99.90
64843;DHT22;51310;52.198;5.422;2023-03-19T07:39:59;8.50;99.90
64843;DHT22;51310;52.198;5.422;2023-03-19T07:42:25;8.60;99.90
64843;DHT22;51310;52.198;5.422;2023-03-19T07:44:51;8.60;99.90
64843;DHT22;51310;52.198;5.422;2023-03-19T07:47:16;8.60;99.90
64843;DHT22;51310;52.198;5.422;2023-03-19T07:49:42;8.60;99.90
64843;DHT22;51310;52.198;5.422;2023-03-19T07:52:08;8.70;99.90
64843;DHT22;51310;52.198;5.422;2023-03-19T07:54:34;8.80;99.90
64843;DHT22;51310;52.198;5.422;2023-03-19T07:57:00;8.80;99.90
64843;DHT22;51310;52.198;5.422;2023-03-19T07:59:26;8.70;99.90
64843;DHT22;51310;52.198;5.422;2023-03-19T08:01:52;8.60;99.90
64843;DHT22;51310;52.198;5.422;2023-03-19T08:04:17;8.60;99.90
64843;DHT22;51310;52.198;5.422;2023-03-19T08:06:43;8.70;99.90
64843;DHT22;51310;52.198;5.422;2023-03-19T08:09:09;8.80;99.90
64843;DHT22;51310;52.198;5.422;2023-03-19T08:11:35;8.80;99.90
64843;DHT22;51310;52.198;5.422;2023-03-19T08:14:01;8.80;99.90
64843;DHT22;51310;52.198;5.422;2023-03-19T08:16:28;8.90;99.90
64843;DHT22;51310;52.198;5.422;2023-03-19T08:18:53;8.90;99.90
64843;DHT22;51310;52.198;5.422;2023-03-19T08:21:19;9.00;99.90
64843;DHT22;51310;52.198;5.422;2023-03-19T08:23:45;9.00;99.90
64843;DHT22;51310;52.198;5.422;2023-03-19T08:26:11;9.10;99.90
64843;DHT22;51310;52.198;5.422;2023-03-19T08:28:36;9.20;99.90
64843;DHT22;51310;52.198;5.422;2023-03-19T08:31:10;9.40;99.90
64843;DHT22;51310;52.198;5.422;2023-03-19T08:33:38;9.50;99.90
64843;DHT22;51310;52.198;5.422;2023-03-19T08:36:10;9.60;99.90
64843;DHT22;51310;52.198;5.422;2023-03-19T08:38:38;9.80;99.90
64843;DHT22;51310;52.198;5.422;2023-03-19T08:41:05;9.80;99.90
64843;DHT22;51310;52.198;5.422;2023-03-19T08:43:32;9.80;99.90
64843;DHT22;51310;52.198;5.422;2023-03-19T08:46:00;9.70;99.90
64843;DHT22;51310;52.198;5.422;2023-03-19T08:48:26;9.70;99.90
64843;DHT22;51310;52.198;5.422;2023-03-19T08:50:57;9.70;99.90
64843;DHT22;51310;52.198;5.422;2023-03-19T08:53:25;9.70;99.90
64843;DHT22;51310;52.198;5.422;2023-03-19T08:55:53;9.70;99.90
64843;DHT22;51310;52.198;5.422;2023-03-19T08:58:21;9.80;99.90
64843;DHT22;51310;52.198;5.422;2023-03-19T09:00:48;10.00;99.90
64843;DHT22;51310;52.198;5.422;2023-03-19T09:03:18;10.00;99.90
64843;DHT22;51310;52.198;5.422;2023-03-19T09:05:45;10.10;99.90
64843;DHT22;51310;52.198;5.422;2023-03-19T09:08:12;10.20;99.90
64843;DHT22;51310;52.198;5.422;2023-03-19T09:10:38;10.40;99.90
64843;DHT22;51310;52.198;5.422;2023-03-19T09:13:04;10.50;99.90
64843;DHT22;51310;52.198;5.422;2023-03-19T09:15:30;10.70;99.90
64843;DHT22;51310;52.198;5.422;2023-03-19T09:17:56;10.90;99.90
64843;DHT22;51310;52.198;5.422;2023-03-19T09:20:22;10.90;99.90
64843;DHT22;51310;52.198;5.422;2023-03-19T09:22:48;11.00;99.90
64843;DHT22;51310;52.198;5.422;2023-03-19T09:25:13;11.00;99.90
64843;DHT22;51310;52.198;5.422;2023-03-19T09:27:39;11.00;99.90
64843;DHT22;51310;52.198;5.422;2023-03-19T09:30:05;11.10;99.90
64843;DHT22;51310;52.198;5.422;2023-03-19T09:32:34;11.10;99.90
64843;DHT22;51310;52.198;5.422;2023-03-19T09:35:00;11.20;99.90
64843;DHT22;51310;52.198;5.422;2023-03-19T09:37:26;11.30;99.90
64843;DHT22;51310;52.198;5.422;2023-03-19T09:39:52;11.20;99.90
64843;DHT22;51310;52.198;5.422;2023-03-19T09:45:19;11.10;99.90
64843;DHT22;51310;52.198;5.422;2023-03-19T09:47:50;11.00;99.90
64843;DHT22;51310;52.198;5.422;2023-03-19T09:50:23;10.80;99.90
64843;DHT22;51310;52.198;5.422;2023-03-19T09:56:04;10.70;99.90
64843;DHT22;51310;52.198;5.422;2023-03-19T09:58:35;10.80;99.90
64843;DHT22;51310;52.198;5.422;2023-03-19T10:01:02;10.90;99.90
64843;DHT22;51310;52.198;5.422;2023-03-19T10:06:42;11.00;99.90
64843;DHT22;51310;52.198;5.422;2023-03-19T10:09:31;11.00;99.90
64843;DHT22;51310;52.198;5.422;2023-03-19T10:18:15;11.00;99.90
64843;DHT22;51310;52.198;5.422;2023-03-19T10:20:52;10.90;99.90
64843;DHT22;51310;52.198;5.422;2023-03-19T10:23:33;10.80;99.90
64843;DHT22;51310;52.198;5.422;2023-03-19T10:26:03;10.80;99.90
64843;DHT22;51310;52.198;5.422;2023-03-19T10:28:33;10.80;99.90
64843;DHT22;51310;52.198;5.422;2023-03-19T10:34:22;10.80;99.90
64843;DHT22;51310;52.198;5.422;2023-03-19T10:36:58;10.90;99.90
64843;DHT22;51310;52.198;5.422;2023-03-19T10:39:25;10.80;99.90
64843;DHT22;51310;52.198;5.422;2023-03-19T10:47:56;10.80;99.90
64843;DHT22;51310;52.198;5.422;2023-03-19T10:53:36;10.80;99.90
64843;DHT22;51310;52.198;5.422;2023-03-19T10:56:05;10.90;99.90
64843;DHT22;51310;52.198;5.422;2023-03-19T10:58:33;11.00;99.90
64843;DHT22;51310;52.198;5.422;2023-03-19T11:01:07;11.10;99.90
64843;DHT22;51310;52.198;5.422;2023-03-19T11:06:30;11.10;99.90
64843;DHT22;51310;52.198;5.422;2023-03-19T11:11:48;11.40;99.90
64843;DHT22;51310;52.198;5.422;2023-03-19T11:14:20;11.50;99.90
64843;DHT22;51310;52.198;5.422;2023-03-19T11:16:56;11.50;99.90
64843;DHT22;51310;52.198;5.422;2023-03-19T11:19:32;11.40;99.90
64843;DHT22;51310;52.198;5.422;2023-03-19T11:22:22;11.40;99.90
64843;DHT22;51310;52.198;5.422;2023-03-19T11:25:24;11.30;99.90
64843;DHT22;51310;52.198;5.422;2023-03-19T11:39:28;11.50;99.90
64843;DHT22;51310;52.198;5.422;2023-03-19T11:43:08;11.50;99.90
64843;DHT22;51310;52.198;5.422;2023-03-19T11:45:38;11.50;99.90
64843;DHT22;51310;52.198;5.422;2023-03-19T11:51:29;11.30;99.90
64843;DHT22;51310;52.198;5.422;2023-03-19T11:54:08;11.30;99.90
64843;DHT22;51310;52.198;5.422;2023-03-19T11:57:01;11.10;99.90
64843;DHT22;51310;52.198;5.422;2023-03-19T11:59:41;11.10;99.90
64843;DHT22;51310;52.198;5.422;2023-03-19T12:11:28;11.10;99.90
64843;DHT22;51310;52.198;5.422;2023-03-19T12:14:09;11.10;99.90
64843;DHT22;51310;52.198;5.422;2023-03-19T12:18:09;11.00;99.90
64843;DHT22;51310;52.198;5.422;2023-03-19T12:20:34;11.00;99.90
64843;DHT22;51310;52.198;5.422;2023-03-19T12:26:04;11.10;99.90
64843;DHT22;51310;52.198;5.422;2023-03-19T12:31:41;11.20;99.90
64843;DHT22;51310;52.198;5.422;2023-03-19T12:34:39;11.20;99.90
64843;DHT22;51310;52.198;5.422;2023-03-19T12:37:21;11.30;99.90
64843;DHT22;51310;52.198;5.422;2023-03-19T12:43:13;11.40;99.90
64843;DHT22;51310;52.198;5.422;2023-03-19T12:45:49;11.50;99.90
64843;DHT22;51310;52.198;5.422;2023-03-19T12:48:28;11.50;99.90
64843;DHT22;51310;52.198;5.422;2023-03-19T12:51:05;11.50;99.90
64843;DHT22;51310;52.198;5.422;2023-03-19T12:53:53;11.50;99.90
64843;DHT22;51310;52.198;5.422;2023-03-19T12:56:38;11.50;99.90
64843;DHT22;51310;52.198;5.422;2023-03-19T12:59:32;11.50;99.90
64843;DHT22;51310;52.198;5.422;2023-03-19T13:02:43;11.50;99.90
64843;DHT22;51310;52.198;5.422;2023-03-19T13:06:15;11.60;99.90
64843;DHT22;51310;52.198;5.422;2023-03-19T13:14:20;11.70;99.90
64843;DHT22;51310;52.198;5.422;2023-03-19T13:17:20;11.70;99.90
64843;DHT22;51310;52.198;5.422;2023-03-19T13:19:54;11.90;99.90
64843;DHT22;51310;52.198;5.422;2023-03-19T13:22:24;11.90;99.90
64843;DHT22;51310;52.198;5.422;2023-03-19T13:24:55;12.10;99.90
64843;DHT22;51310;52.198;5.422;2023-03-19T13:27:28;12.10;99.90
64843;DHT22;51310;52.198;5.422;2023-03-19T13:38:20;11.90;99.90
64843;DHT22;51310;52.198;5.422;2023-03-19T13:40:51;12.10;99.90
64843;DHT22;51310;52.198;5.422;2023-03-19T13:48:51;12.50;99.90
64843;DHT22;51310;52.198;5.422;2023-03-19T13:59:28;12.90;99.90
64843;DHT22;51310;52.198;5.422;2023-03-19T14:01:58;13.10;99.90
64843;DHT22;51310;52.198;5.422;2023-03-19T14:04:28;13.30;99.90
64843;DHT22;51310;52.198;5.422;2023-03-19T14:07:10;13.30;99.90
64843;DHT22;51310;52.198;5.422;2023-03-19T14:09:44;13.20;99.90
64843;DHT22;51310;52.198;5.422;2023-03-19T14:15:30;12.90;99.90
64843;DHT22;51310;52.198;5.422;2023-03-19T14:23:17;12.90;99.90
64843;DHT22;51310;52.198;5.422;2023-03-19T14:26:12;13.00;99.90
64843;DHT22;51310;52.198;5.422;2023-03-19T14:29:00;13.00;99.90
64843;DHT22;51310;52.198;5.422;2023-03-19T14:39:50;12.70;99.90
64843;DHT22;51310;52.198;5.422;2023-03-19T14:42:26;12.70;99.90
64843;DHT22;51310;52.198;5.422;2023-03-19T14:45:24;12.50;99.90
64843;DHT22;51310;52.198;5.422;2023-03-19T14:54:37;12.40;99.90
64843;DHT22;51310;52.198;5.422;2023-03-19T14:57:18;12.40;99.90
64843;DHT22;51310;52.198;5.422;2023-03-19T14:59:48;12.30;99.90
64843;DHT22;51310;52.198;5.422;2023-03-19T15:02:34;12.40;99.90
64843;DHT22;51310;52.198;5.422;2023-03-19T15:05:26;12.50;99.90
64843;DHT22;51310;52.198;5.422;2023-03-19T15:08:04;12.50;99.90
64843;DHT22;51310;52.198;5.422;2023-03-19T15:17:04;12.40;99.90
64843;DHT22;51310;52.198;5.422;2023-03-19T15:19:41;12.30;99.90
64843;DHT22;51310;52.198;5.422;2023-03-19T15:22:33;12.30;99.90
64843;DHT22;51310;52.198;5.422;2023-03-19T15:25:09;12.30;99.90
64843;DHT22;51310;52.198;5.422;2023-03-19T15:27:37;12.20;99.90
64843;DHT22;51310;52.198;5.422;2023-03-19T15:30:24;12.20;99.90
64843;DHT22;51310;52.198;5.422;2023-03-19T15:32:53;12.20;99.90
64843;DHT22;51310;52.198;5.422;2023-03-19T15:35:21;12.10;99.90
64843;DHT22;51310;52.198;5.422;2023-03-19T15:37:53;12.10;99.90
64843;DHT22;51310;52.198;5.422;2023-03-19T15:40:25;12.00;99.90
64843;DHT22;51310;52.198;5.422;2023-03-19T15:42:59;11.90;99.90
64843;DHT22;51310;52.198;5.422;2023-03-19T15:45:28;11.90;99.90
64843;DHT22;51310;52.198;5.422;2023-03-19T15:48:08;11.90;99.90
64843;DHT22;51310;52.198;5.422;2023-03-19T15:50:43;11.70;99.90
64843;DHT22;51310;52.198;5.422;2023-03-19T15:53:15;11.70;99.90
64843;DHT22;51310;52.198;5.422;2023-03-19T15:55:47;11.70;99.90
64843;DHT22;51310;52.198;5.422;2023-03-19T15:58:26;11.70;99.90
64843;DHT22;51310;52.198;5.422;2023-03-19T16:00:54;11.70;99.90
64843;DHT22;51310;52.198;5.422;2023-03-19T16:03:36;11.70;99.90
64843;DHT22;51310;52.198;5.422;2023-03-19T16:06:12;11.70;99.90
64843;DHT22;51310;52.198;5.422;2023-03-19T16:08:48;11.80;99.90
64843;DHT22;51310;52.198;5.422;2023-03-19T16:11:33;11.70;99.90
64843;DHT22;51310;52.198;5.422;2023-03-19T16:14:09;11.70;99.90
64843;DHT22;51310;52.198;5.422;2023-03-19T16:16:46;11.60;99.90
64843;DHT22;51310;52.198;5.422;2023-03-19T16:19:35;11.50;99.90
64843;DHT22;51310;52.198;5.422;2023-03-19T16:22:18;11.50;99.90
64843;DHT22;51310;52.198;5.422;2023-03-19T16:24:46;11.50;99.90
64843;DHT22;51310;52.198;5.422;2023-03-19T16:27:19;11.50;99.90
64843;DHT22;51310;52.198;5.422;2023-03-19T16:29:57;11.40;99.90
64843;DHT22;51310;52.198;5.422;2023-03-19T16:32:31;11.40;99.90
64843;DHT22;51310;52.198;5.422;2023-03-19T16:35:03;11.40;99.90
64843;DHT22;51310;52.198;5.422;2023-03-19T16:37:42;11.50;99.90
64843;DHT22;51310;52.198;5.422;2023-03-19T16:42:43;11.50;99.90
64843;DHT22;51310;52.198;5.422;2023-03-19T16:47:43;11.50;99.90
64843;DHT22;51310;52.198;5.422;2023-03-19T16:50:14;11.40;99.90
64843;DHT22;51310;52.198;5.422;2023-03-19T16:52:43;11.40;99.90
64843;DHT22;51310;52.198;5.422;2023-03-19T16:55:22;11.40;99.90
64843;DHT22;51310;52.198;5.422;2023-03-19T16:58:06;11.40;99.90
64843;DHT22;51310;52.198;5.422;2023-03-19T17:00:38;11.40;99.90
64843;DHT22;51310;52.198;5.422;2023-03-19T17:03:11;11.20;99.90
64843;DHT22;51310;52.198;5.422;2023-03-19T17:05:39;11.10;99.90
64843;DHT22;51310;52.198;5.422;2023-03-19T17:08:05;10.90;99.90
64843;DHT22;51310;52.198;5.422;2023-03-19T17:10:32;10.90;99.90
64843;DHT22;51310;52.198;5.422;2023-03-19T17:13:00;10.80;99.90
64843;DHT22;51310;52.198;5.422;2023-03-19T17:15:28;10.80;99.90
64843;DHT22;51310;52.198;5.422;2023-03-19T17:17:58;10.70;99.90
64843;DHT22;51310;52.198;5.422;2023-03-19T17:20:36;10.70;99.90
64843;DHT22;51310;52.198;5.422;2023-03-19T17:23:12;10.60;99.90
64843;DHT22;51310;52.198;5.422;2023-03-19T17:25:38;10.50;99.90
64843;DHT22;51310;52.198;5.422;2023-03-19T17:28:04;10.40;99.90
64843;DHT22;51310;52.198;5.422;2023-03-19T17:30:31;10.40;99.90
64843;DHT22;51310;52.198;5.422;2023-03-19T17:32:57;10.40;99.90
64843;DHT22;51310;52.198;5.422;2023-03-19T17:35:24;10.30;99.90
64843;DHT22;51310;52.198;5.422;2023-03-19T17:37:50;10.30;99.90
64843;DHT22;51310;52.198;5.422;2023-03-19T17:42:49;10.20;99.90
64843;DHT22;51310;52.198;5.422;2023-03-19T17:45:18;10.20;99.90
64843;DHT22;51310;52.198;5.422;2023-03-19T17:47:48;10.20;99.90
64843;DHT22;51310;52.198;5.422;2023-03-19T17:50:19;10.20;99.90
64843;DHT22;51310;52.198;5.422;2023-03-19T17:52:49;10.10;99.90
64843;DHT22;51310;52.198;5.422;2023-03-19T17:55:19;10.10;99.90
64843;DHT22;51310;52.198;5.422;2023-03-19T17:57:46;10.10;99.90
64843;DHT22;51310;52.198;5.422;2023-03-19T18:00:13;10.00;99.90
64843;DHT22;51310;52.198;5.422;2023-03-19T18:02:41;10.00;99.90
64843;DHT22;51310;52.198;5.422;2023-03-19T18:05:17;10.00;99.90
64843;DHT22;51310;52.198;5.422;2023-03-19T18:07:46;10.00;99.90
64843;DHT22;51310;52.198;5.422;2023-03-19T18:10:39;9.80;99.90
64843;DHT22;51310;52.198;5.422;2023-03-19T18:13:05;9.70;99.90